Time;durP1;ratioP1;P1;durP2;ratioP2;P2;SDS_P1;SDS_P2;PMS_P1;PMS_P2;Temp;Humidity;BMP_temperature;BMP_pressure;BME280_temperature;BME280_humidity;BME280_pressure;Samples;Min_cycle;Max_cycle;Signal;HPM_P1;HPM_P2
2023/01/19 00:01:18;;;;;;;46.17;14.50;;;;;;;-1.41;81.29;100040.19;4987083;28;20098;-57
2023/01/19 00:03:44;;;;;;;42.20;14.73;;;;;;;-1.39;81.36;100042.72;4985964;28;20083;-59
2023/01/19 00:06:10;;;;;;;41.22;15.32;;;;;;;-1.36;80.67;100041.84;4987368;28;20095;-58
2023/01/19 00:08:37;;;;;;;48.65;15.55;;;;;;;-1.35;81.30;100049.53;4989641;28;20091;-58
2023/01/19 00:11:02;;;;;;;42.28;15.30;;;;;;;-1.34;81.05;100050.38;4989679;28;20087;-57
2023/01/19 00:13:28;;;;;;;45.72;14.40;;;;;;;-1.34;80.99;100043.50;4981966;28;20435;-58
2023/01/19 00:15:54;;;;;;;37.67;14.98;;;;;;;-1.29;81.21;100043.41;4970459;28;20099;-56
2023/01/19 00:18:19;;;;;;;44.22;14.15;;;;;;;-1.25;80.36;100055.38;4974474;28;20075;-57
2023/01/19 00:20:46;;;;;;;39.10;11.48;;;;;;;-1.27;80.36;100057.13;4967176;28;20093;-55
2023/01/19 00:23:12;;;;;;;27.73;10.68;;;;;;;-1.33;80.88;100054.66;4985732;28;20082;-57
2023/01/19 00:25:41;;;;;;;29.80;11.85;;;;;;;-1.35;80.50;100051.25;4988292;28;20120;-56
2023/01/19 00:28:11;;;;;;;32.80;10.55;;;;;;;-1.37;80.53;100056.47;4988528;28;20082;-60
2023/01/19 00:30:38;;;;;;;35.10;12.05;;;;;;;-1.42;80.36;100053.97;4985366;28;20512;-56
2023/01/19 00:33:03;;;;;;;24.30;10.60;;;;;;;-1.48;80.50;100053.25;4988799;28;20114;-58
2023/01/19 00:35:29;;;;;;;42.25;11.60;;;;;;;-1.56;80.42;100050.81;4988877;28;20106;-61
2023/01/19 00:37:55;;;;;;;22.55;10.77;;;;;;;-1.67;80.98;100048.41;4978193;28;20095;-63
2023/01/19 00:40:21;;;;;;;28.77;10.95;;;;;;;-1.71;81.15;100047.63;4984971;28;20067;-58
2023/01/19 00:42:47;;;;;;;26.00;11.23;;;;;;;-1.69;80.83;100055.34;4979327;28;20497;-61
2023/01/19 00:45:18;;;;;;;26.60;11.63;;;;;;;-1.74;80.42;100063.16;4986603;28;20113;-61
2023/01/19 00:47:46;;;;;;;28.25;11.48;;;;;;;-1.81;81.11;100071.88;4981845;28;20094;-59
2023/01/19 00:50:15;;;;;;;23.60;10.75;;;;;;;-1.81;80.99;100076.19;4985940;28;20113;-59
2023/01/19 00:52:42;;;;;;;28.00;12.00;;;;;;;-1.87;80.56;100075.41;4989748;28;20078;-60
2023/01/19 00:55:09;;;;;;;22.17;11.85;;;;;;;-1.89;81.06;100079.75;4970633;28;20117;-61
2023/01/19 00:57:35;;;;;;;30.05;11.20;;;;;;;-1.91;81.17;100081.53;4982951;28;20165;-60
2023/01/19 01:00:01;;;;;;;32.47;10.88;;;;;;;-1.89;80.86;100094.38;4984857;28;20561;-61
2023/01/19 01:02:27;;;;;;;25.65;11.07;;;;;;;-1.94;80.35;100093.59;4975886;28;20078;-57
2023/01/19 01:04:53;;;;;;;28.13;11.88;;;;;;;-1.97;81.24;100093.66;4985398;28;20110;-62
2023/01/19 01:07:23;;;;;;;33.17;12.20;;;;;;;-2.01;80.60;100098.00;4980613;28;20079;-56
2023/01/19 01:09:49;;;;;;;27.63;11.80;;;;;;;-2.03;80.67;100108.34;4989017;28;20095;-59
2023/01/19 01:12:14;;;;;;;27.58;10.35;;;;;;;-2.07;80.40;100111.84;4985706;28;20083;-59
2023/01/19 01:14:40;;;;;;;30.48;13.30;;;;;;;-2.09;80.43;100112.75;4972126;28;20093;-59
2023/01/19 01:17:10;;;;;;;34.15;13.27;;;;;;;-2.11;80.68;100124.81;4982573;28;21224;-58
2023/01/19 01:19:37;;;;;;;33.53;13.60;;;;;;;-2.10;80.56;100129.09;4976278;28;20193;-56
2023/01/19 01:22:03;;;;;;;29.98;11.38;;;;;;;-2.15;80.37;100130.00;4979983;28;20083;-59
2023/01/19 01:24:29;;;;;;;26.38;11.60;;;;;;;-2.17;80.75;100134.34;4982894;28;20078;-56
2023/01/19 01:26:54;;;;;;;33.47;12.57;;;;;;;-2.17;80.79;100134.34;4989984;28;20426;-58
2023/01/19 01:29:20;;;;;;;27.83;12.32;;;;;;;-2.19;80.16;100133.50;4982703;28;20150;-59
2023/01/19 01:31:45;;;;;;;35.58;12.40;;;;;;;-2.17;80.60;100142.06;4983373;28;20078;-58
2023/01/19 01:34:11;;;;;;;29.20;11.27;;;;;;;-2.17;80.68;100134.34;4981292;28;20219;-56
2023/01/19 01:36:36;;;;;;;23.42;11.02;;;;;;;-2.16;80.08;100138.63;4982830;28;20629;-58
2023/01/19 01:39:03;;;;;;;25.63;10.38;;;;;;;-2.17;79.77;100136.91;4984235;28;20660;-57
2023/01/19 01:41:29;;;;;;;26.73;11.25;;;;;;;-2.18;80.28;100142.94;4974128;28;20181;-59
2023/01/19 01:44:00;;;;;;;32.58;13.02;;;;;;;-2.21;79.99;100145.59;4981140;28;20086;-57
2023/01/19 01:46:27;;;;;;;28.23;10.97;;;;;;;-2.23;79.71;100146.47;4975798;28;20095;-58
2023/01/19 01:49:15;;;;;;;32.42;10.90;;;;;;;-2.28;80.06;100149.09;4972426;28;20083;-59
2023/01/19 01:51:51;;;;;;;26.55;11.23;;;;;;;-2.32;80.44;100142.28;4973812;28;20078;-59
2023/01/19 01:54:31;;;;;;;33.20;13.15;;;;;;;-2.34;80.00;100149.19;4978933;28;20070;-57
2023/01/19 01:57:01;;;;;;;30.58;11.73;;;;;;;-2.33;79.70;100140.56;4983225;28;20094;-61
2023/01/19 01:59:38;;;;;;;32.58;11.30;;;;;;;-2.32;79.49;100142.28;4984738;28;20075;-59
2023/01/19 02:05:04;;;;;;;33.00;10.27;;;;;;;-2.32;79.47;100144.84;4983882;28;20165;-58
2023/01/19 02:13:23;;;;;;;30.25;11.48;;;;;;;-2.35;79.35;100142.34;4977679;28;20626;-60
2023/01/19 02:15:54;;;;;;;28.75;11.25;;;;;;;-2.36;79.55;100148.38;4984201;28;20145;-58
2023/01/19 02:18:22;;;;;;;30.08;11.82;;;;;;;-2.39;79.37;100135.53;4988818;28;20084;-55
2023/01/19 02:21:12;;;;;;;23.75;11.48;;;;;;;-2.44;78.68;100133.03;4980104;28;20067;-58
2023/01/19 02:23:41;;;;;;;28.38;11.27;;;;;;;-2.45;79.51;100133.91;4981227;28;20166;-61
2023/01/19 02:26:09;;;;;;;32.97;10.70;;;;;;;-2.45;79.02;100127.00;4984551;28;20090;-59
2023/01/19 02:28:39;;;;;;;25.30;9.68;;;;;;;-2.47;78.76;100126.16;4985930;28;20625;-58
2023/01/19 02:31:05;;;;;;;27.00;10.10;;;;;;;-2.47;79.52;100133.91;4986277;28;20106;-57
2023/01/19 02:33:30;;;;;;;27.80;10.88;;;;;;;-2.46;79.05;100125.28;4993216;28;20095;-59
2023/01/19 02:35:57;;;;;;;26.85;9.27;;;;;;;-2.45;79.56;100129.56;4979224;28;20125;-58
2023/01/19 02:38:26;;;;;;;24.10;10.65;;;;;;;-2.46;78.58;100130.44;4980533;28;20079;-59
2023/01/19 02:40:56;;;;;;;24.00;11.30;;;;;;;-2.47;79.14;100133.91;4983814;28;20079;-59
2023/01/19 02:43:23;;;;;;;20.05;9.52;;;;;;;-2.48;79.05;100126.19;4984641;28;20074;-61
2023/01/19 02:45:49;;;;;;;27.85;10.05;;;;;;;-2.54;78.16;100137.44;4982207;28;20133;-58
2023/01/19 02:48:17;;;;;;;28.70;10.43;;;;;;;-2.56;78.79;100125.44;4984492;28;20617;-59
2023/01/19 02:50:45;;;;;;;25.88;10.60;;;;;;;-2.61;78.49;100126.38;4985729;28;20207;-58
2023/01/19 02:53:32;;;;;;;23.50;10.40;;;;;;;-2.68;78.98;100124.72;4983184;28;20075;-59
2023/01/19 02:56:51;;;;;;;22.95;10.38;;;;;;;-2.73;79.16;100130.81;4984715;28;20110;-58
2023/01/19 02:59:36;;;;;;;19.50;9.25;;;;;;;-2.77;78.27;100128.28;4942273;28;20678;-56
2023/01/19 03:02:16;;;;;;;23.70;11.60;;;;;;;-2.75;78.31;100125.69;4989729;28;20074;-58
2023/01/19 03:05:20;;;;;;;24.85;10.98;;;;;;;-2.78;78.52;100123.16;4985211;28;20075;-57
2023/01/19 03:08:40;;;;;;;27.02;11.82;;;;;;;-2.79;78.38;100124.88;4986814;28;20612;-58
2023/01/19 03:11:09;;;;;;;22.83;11.80;;;;;;;-2.79;78.93;100130.00;4951665;28;20570;-59
2023/01/19 03:13:46;;;;;;;22.92;10.70;;;;;;;-2.78;78.96;100134.28;4970203;28;20093;-55
2023/01/19 03:16:15;;;;;;;27.92;11.45;;;;;;;-2.76;79.04;100137.72;4987047;28;20094;-57
2023/01/19 03:18:44;;;;;;;23.73;11.20;;;;;;;-2.74;78.90;100134.25;4988368;28;20534;-57
2023/01/19 03:21:12;;;;;;;29.85;12.40;;;;;;;-2.76;78.67;100142.88;4988320;28;20094;-59
2023/01/19 03:23:40;;;;;;;25.90;11.15;;;;;;;-2.79;78.79;100142.91;4984444;28;20163;-55
2023/01/19 03:26:11;;;;;;;26.83;11.93;;;;;;;-2.81;78.55;100142.09;4991035;28;20102;-55
2023/01/19 03:28:40;;;;;;;20.30;11.00;;;;;;;-2.81;78.89;100138.66;4979806;28;20497;-57
2023/01/19 03:31:20;;;;;;;24.30;10.98;;;;;;;-2.84;78.37;100148.97;4989856;28;20094;-56
2023/01/19 03:33:58;;;;;;;27.92;13.07;;;;;;;-2.86;79.04;100158.44;4996362;28;20077;-59
2023/01/19 03:36:30;;;;;;;25.33;10.88;;;;;;;-2.87;78.43;100149.88;4992021;28;20113;-57
2023/01/19 03:38:58;;;;;;;24.70;10.75;;;;;;;-2.87;78.83;100152.44;4988750;28;20169;-61
2023/01/19 03:41:26;;;;;;;22.63;11.48;;;;;;;-2.85;79.03;100145.56;4993525;28;20079;-60
2023/01/19 03:43:54;;;;;;;22.15;10.57;;;;;;;-2.86;78.31;100150.72;4994527;28;20141;-60
2023/01/19 03:46:21;;;;;;;27.88;10.23;;;;;;;-2.87;78.83;100143.88;4981752;28;20161;-60
2023/01/19 03:48:47;;;;;;;23.52;10.93;;;;;;;-2.87;78.38;100147.31;4986227;28;20094;-60
2023/01/19 03:51:14;;;;;;;21.58;10.88;;;;;;;-2.90;78.19;100149.91;4982712;28;20091;-59
2023/01/19 03:53:40;;;;;;;22.58;10.88;;;;;;;-2.94;78.23;100150.81;4978750;28;20083;-60
2023/01/19 03:56:16;;;;;;;24.75;10.90;;;;;;;-2.96;78.86;100155.13;4975720;28;20106;-59
2023/01/19 03:58:41;;;;;;;21.48;10.05;;;;;;;-2.98;78.50;100147.41;4979455;28;20144;-57
2023/01/19 04:01:07;;;;;;;13.60;6.38;;;;;;;-3.03;78.10;100150.91;4985594;28;20106;-61
2023/01/19 04:03:33;;;;;;;23.15;10.13;;;;;;;-3.06;78.68;100152.66;4984105;28;20097;-60
2023/01/19 04:05:58;;;;;;;20.13;9.48;;;;;;;-3.08;78.56;100149.25;4986300;28;20105;-60
2023/01/19 04:08:24;;;;;;;13.45;6.30;;;;;;;-3.11;78.66;100151.00;4982933;28;20078;-59
2023/01/19 04:10:49;;;;;;;24.05;10.07;;;;;;;-3.06;78.61;100159.53;4990177;28;20098;-58
2023/01/19 04:13:14;;;;;;;21.23;10.43;;;;;;;-3.10;78.08;100153.53;4990572;28;20087;-60
2023/01/19 04:15:40;;;;;;;24.77;10.63;;;;;;;-3.13;78.26;100152.72;4983894;28;20091;-61
2023/01/19 04:18:05;;;;;;;24.75;11.00;;;;;;;-3.16;78.06;100160.47;4986008;28;20081;-59
2023/01/19 04:20:32;;;;;;;20.52;8.52;;;;;;;-3.16;78.04;100169.06;4982328;28;20068;-60
2023/01/19 04:22:59;;;;;;;22.42;9.60;;;;;;;-3.18;78.47;100186.25;4988926;28;20189;-61
2023/01/19 04:25:25;;;;;;;24.33;10.70;;;;;;;-3.19;78.29;100173.41;4985084;28;20081;-60
2023/01/19 04:27:52;;;;;;;22.67;10.77;;;;;;;-3.22;78.44;100180.28;4990184;28;20160;-59
2023/01/19 04:30:17;;;;;;;28.58;12.32;;;;;;;-3.24;78.29;100171.72;4988810;28;20096;-56
2023/01/19 04:32:43;;;;;;;23.20;12.40;;;;;;;-3.32;78.63;100173.50;4981703;28;20068;-58
2023/01/19 04:35:08;;;;;;;29.60;13.35;;;;;;;-3.32;78.81;100173.50;4977051;28;20456;-58
2023/01/19 04:37:34;;;;;;;27.75;12.10;;;;;;;-3.32;78.34;100175.25;4977687;28;20099;-58
2023/01/19 04:39:59;;;;;;;28.23;13.10;;;;;;;-3.35;78.75;100188.13;4984440;28;20074;-56
2023/01/19 04:42:26;;;;;;;24.98;12.10;;;;;;;-3.36;78.70;100184.72;4985682;28;20073;-59
2023/01/19 04:44:52;;;;;;;24.95;11.45;;;;;;;-3.33;78.56;100181.25;4991966;28;20451;-57
2023/01/19 04:47:18;;;;;;;24.85;10.40;;;;;;;-3.31;78.43;100182.94;4986587;28;20081;-55
2023/01/19 04:49:44;;;;;;;21.40;10.13;;;;;;;-3.29;78.42;100182.94;4986375;28;20626;-58
2023/01/19 04:52:09;;;;;;;19.95;9.88;;;;;;;-3.26;78.26;100182.91;4982697;28;20076;-57
2023/01/19 04:54:35;;;;;;;22.33;10.55;;;;;;;-3.24;78.25;100181.16;4987198;28;20082;-56
2023/01/19 04:57:00;;;;;;;24.10;10.68;;;;;;;-3.22;78.11;100176.84;4985787;28;20428;-57
2023/01/19 04:59:26;;;;;;;33.00;13.18;;;;;;;-3.23;78.02;100177.72;4981505;28;20076;-60
2023/01/19 05:01:51;;;;;;;23.58;10.80;;;;;;;-3.21;78.74;100181.13;4983263;28;20067;-57
2023/01/19 05:04:17;;;;;;;32.88;14.18;;;;;;;-3.19;78.30;100184.53;4985388;28;20116;-60
2023/01/19 05:06:43;;;;;;;19.80;8.30;;;;;;;-3.23;78.58;100181.16;4984476;28;20099;-61
2023/01/19 05:09:11;;;;;;;26.52;12.13;;;;;;;-3.22;78.44;100182.00;4985689;28;20099;-58
2023/01/19 05:11:37;;;;;;;22.05;10.95;;;;;;;-3.22;78.80;100182.00;4986575;28;20119;-59
2023/01/19 05:14:03;;;;;;;29.70;12.88;;;;;;;-3.22;78.71;100187.13;4979479;28;20060;-58
2023/01/19 05:16:28;;;;;;;26.27;10.88;;;;;;;-3.23;78.42;100183.72;4978691;28;20583;-59
2023/01/19 05:18:53;;;;;;;26.02;12.77;;;;;;;-3.19;78.85;100188.84;4984932;28;20077;-57
2023/01/19 05:21:19;;;;;;;27.40;11.68;;;;;;;-3.19;78.39;100184.53;4990298;28;20600;-59
2023/01/19 05:23:44;;;;;;;21.90;10.05;;;;;;;-3.23;78.79;100177.72;4970214;28;20106;-56
2023/01/19 05:26:10;;;;;;;22.50;11.07;;;;;;;-3.29;78.22;100172.66;4989136;28;20179;-58
2023/01/19 05:28:36;;;;;;;23.70;12.18;;;;;;;-3.27;78.63;100171.75;4978154;28;20529;-61
2023/01/19 05:31:02;;;;;;;24.65;11.38;;;;;;;-3.24;78.46;100176.00;4965885;28;20088;-60
2023/01/19 05:33:28;;;;;;;25.83;12.93;;;;;;;-3.29;78.76;100172.66;4966822;28;20066;-59
2023/01/19 05:35:53;;;;;;;30.05;12.05;;;;;;;-3.31;78.37;100164.09;4981075;28;20229;-59
2023/01/19 05:38:20;;;;;;;27.73;13.50;;;;;;;-3.39;78.76;100171.88;4981738;28;20085;-57
2023/01/19 05:40:46;;;;;;;36.58;14.35;;;;;;;-3.38;78.92;100163.28;4964270;28;20172;-62
2023/01/19 05:43:13;;;;;;;35.83;16.15;;;;;;;-3.38;78.99;100164.13;4980227;28;20068;-59
2023/01/19 05:45:38;;;;;;;35.47;16.45;;;;;;;-3.37;79.00;100152.97;4978024;28;20492;-60
2023/01/19 05:48:04;;;;;;;27.95;12.00;;;;;;;-3.38;78.77;100158.97;4978954;28;20530;-60
2023/01/19 05:50:31;;;;;;;29.30;13.75;;;;;;;-3.42;79.07;100159.03;4984746;28;20460;-61
2023/01/19 05:52:56;;;;;;;35.33;15.52;;;;;;;-3.43;78.97;100162.47;4973849;28;20080;-58
2023/01/19 05:55:22;;;;;;;40.30;15.93;;;;;;;-3.45;78.97;100171.91;4967399;28;20090;-59
2023/01/19 05:57:47;;;;;;;33.35;14.55;;;;;;;-3.47;79.18;100164.22;4979992;28;20068;-59
2023/01/19 06:00:13;;;;;;;28.05;12.45;;;;;;;-3.49;79.06;100171.09;4981878;28;20060;-60
2023/01/19 06:02:39;;;;;;;30.83;13.43;;;;;;;-3.48;79.19;100180.53;4979716;28;20067;-61
2023/01/19 06:05:05;;;;;;;24.55;11.40;;;;;;;-3.45;79.17;100177.06;4981120;28;20214;-61
2023/01/19 06:07:31;;;;;;;21.20;10.82;;;;;;;-3.44;79.03;100183.91;4973091;28;20076;-59
2023/01/19 06:09:57;;;;;;;23.75;10.07;;;;;;;-3.42;79.24;100182.19;4976240;28;20437;-59
2023/01/19 06:12:23;;;;;;;21.67;10.52;;;;;;;-3.42;78.89;100185.63;4984225;28;20074;-58
2023/01/19 06:14:48;;;;;;;25.88;12.18;;;;;;;-3.38;78.98;100187.28;4987804;28;20069;-57
2023/01/19 06:17:14;;;;;;;28.92;12.55;;;;;;;-3.38;79.08;100191.59;4977058;28;20071;-56
2023/01/19 06:19:40;;;;;;;26.17;11.63;;;;;;;-3.34;78.85;100194.97;4978172;28;20121;-59
2023/01/19 06:22:06;;;;;;;29.05;13.13;;;;;;;-3.32;78.69;100199.22;4983248;28;20091;-59
2023/01/19 06:24:31;;;;;;;26.02;12.77;;;;;;;-3.33;78.89;100201.84;4981188;28;20094;-62
2023/01/19 06:26:59;;;;;;;30.95;13.50;;;;;;;-3.31;78.76;100202.69;4978592;28;20050;-57
2023/01/19 06:29:28;;;;;;;32.33;13.90;;;;;;;-3.32;78.95;100198.41;4986145;28;20053;-56
2023/01/19 06:31:54;;;;;;;26.05;11.25;;;;;;;-3.29;78.47;100198.38;4985244;28;20091;-55
2023/01/19 06:34:20;;;;;;;24.70;10.93;;;;;;;-3.27;78.52;100210.34;4981399;28;20071;-60
2023/01/19 06:36:45;;;;;;;27.17;12.80;;;;;;;-3.27;78.65;100218.06;4980398;28;20101;-61
2023/01/19 06:39:11;;;;;;;22.38;11.20;;;;;;;-3.27;78.81;100217.22;4985187;28;20099;-58
2023/01/19 06:41:37;;;;;;;22.70;10.70;;;;;;;-3.23;78.50;100213.75;4983831;28;20063;-58
2023/01/19 06:44:04;;;;;;;24.83;9.57;;;;;;;-3.25;78.75;100211.19;4979326;28;20540;-61
2023/01/19 06:46:30;;;;;;;21.38;11.88;;;;;;;-3.24;78.58;100205.19;4978126;28;20168;-58
2023/01/19 06:48:56;;;;;;;20.13;10.30;;;;;;;-3.23;79.07;100213.75;4982243;28;20070;-57
2023/01/19 06:51:22;;;;;;;25.85;11.95;;;;;;;-3.27;78.65;100206.94;4982802;28;20071;-60
2023/01/19 06:53:47;;;;;;;27.08;12.52;;;;;;;-3.28;78.95;100212.94;4979595;28;20062;-59
2023/01/19 06:56:13;;;;;;;21.23;10.88;;;;;;;-3.28;78.70;100215.53;4981197;28;20086;-57
2023/01/19 06:58:40;;;;;;;29.08;11.35;;;;;;;-3.30;78.87;100214.69;4990632;28;20076;-59
2023/01/19 07:01:07;;;;;;;24.63;12.55;;;;;;;-3.30;78.63;100224.97;4983852;28;20052;-57
2023/01/19 07:03:33;;;;;;;27.83;11.88;;;;;;;-3.30;78.78;100227.53;4984465;28;20078;-57
2023/01/19 07:06:01;;;;;;;23.50;11.60;;;;;;;-3.32;78.79;100221.56;4988724;28;20545;-60
2023/01/19 07:08:27;;;;;;;22.35;12.77;;;;;;;-3.27;78.98;100222.38;4989159;28;20084;-61
2023/01/19 07:10:58;;;;;;;25.27;11.40;;;;;;;-3.26;79.01;100224.09;4984012;28;20470;-59
2023/01/19 07:13:23;;;;;;;23.52;11.27;;;;;;;-3.25;78.66;100226.63;4976762;28;20061;-59
2023/01/19 07:15:49;;;;;;;29.70;11.57;;;;;;;-3.28;78.38;100231.81;4975418;28;20091;-61
2023/01/19 07:18:14;;;;;;;27.52;11.90;;;;;;;-3.26;78.82;100249.81;4983605;28;20080;-56
2023/01/19 07:20:40;;;;;;;29.92;11.95;;;;;;;-3.22;78.66;100246.31;4987136;28;20061;-59
2023/01/19 07:23:05;;;;;;;29.65;12.38;;;;;;;-3.19;78.97;100245.47;4983402;28;20071;-60
2023/01/19 07:25:31;;;;;;;22.40;11.23;;;;;;;-3.24;78.93;100248.06;4992509;28;20074;-60
2023/01/19 07:28:00;;;;;;;26.83;11.50;;;;;;;-3.25;78.93;100244.66;4987346;28;20139;-57
2023/01/19 07:30:26;;;;;;;28.88;13.30;;;;;;;-3.23;78.71;100247.19;4990177;28;20445;-60
2023/01/19 07:32:54;;;;;;;24.35;13.00;;;;;;;-3.25;78.95;100243.78;4984454;28;20086;-59
2023/01/19 07:35:20;;;;;;;21.88;11.88;;;;;;;-3.22;79.12;100251.47;4990658;28;20237;-60
2023/01/19 07:37:46;;;;;;;23.30;12.18;;;;;;;-3.19;78.74;100245.47;4981280;28;20146;-58
2023/01/19 07:40:12;;;;;;;30.13;12.30;;;;;;;-3.16;79.03;100254.00;4982522;28;20132;-58
2023/01/19 07:42:37;;;;;;;17.25;7.60;;;;;;;-3.18;78.79;100248.00;4982024;28;20111;-60
2023/01/19 07:45:03;;;;;;;24.58;12.18;;;;;;;-3.19;79.01;100245.47;4985951;28;20088;-60
2023/01/19 07:47:28;;;;;;;23.85;11.70;;;;;;;-3.19;78.55;100242.91;4986057;28;20056;-61
2023/01/19 07:49:54;;;;;;;28.58;11.77;;;;;;;-3.18;79.24;100242.88;4983640;28;20120;-61
2023/01/19 07:52:21;;;;;;;30.23;12.60;;;;;;;-3.16;78.91;100256.56;4986789;28;20069;-57
2023/01/19 07:54:49;;;;;;;30.13;13.35;;;;;;;-3.13;78.82;100250.53;4977311;28;20062;-60
2023/01/19 07:57:15;;;;;;;29.75;12.45;;;;;;;-3.11;78.91;100253.97;4987222;28;20106;-60
2023/01/19 07:59:41;;;;;;;26.70;11.57;;;;;;;-3.04;79.14;100257.31;4987737;28;20057;-59
2023/01/19 08:02:08;;;;;;;22.80;12.25;;;;;;;-3.03;78.60;100251.31;4976942;28;20061;-59
2023/01/19 08:04:34;;;;;;;15.93;8.20;;;;;;;-3.01;78.86;100257.31;4985737;28;20091;-60
2023/01/19 08:06:59;;;;;;;22.88;11.32;;;;;;;-2.96;78.50;100263.28;4978798;28;20153;-61
2023/01/19 08:09:25;;;;;;;27.88;12.13;;;;;;;-2.92;78.42;100273.53;4979195;28;20148;-57
2023/01/19 08:11:50;;;;;;;24.95;12.77;;;;;;;-2.87;78.66;100278.63;4984358;28;20190;-57
2023/01/19 08:14:16;;;;;;;22.92;12.25;;;;;;;-2.85;78.70;100281.16;4985047;28;20055;-57
2023/01/19 08:16:42;;;;;;;36.20;12.70;;;;;;;-2.81;78.59;100294.03;4986219;28;20165;-57
2023/01/19 08:19:07;;;;;;;30.20;13.13;;;;;;;-2.76;78.84;100292.22;4986002;28;20540;-56
2023/01/19 08:21:34;;;;;;;25.00;12.20;;;;;;;-2.70;78.20;100291.31;4987432;28;20142;-57
2023/01/19 08:24:00;;;;;;;29.70;13.20;;;;;;;-2.67;78.29;100295.59;4989347;28;20056;-56
2023/01/19 08:26:31;;;;;;;24.65;13.65;;;;;;;-2.64;78.12;100280.97;4978200;28;20062;-61
2023/01/19 08:28:58;;;;;;;25.42;12.27;;;;;;;-2.61;78.17;100292.94;4986506;28;20064;-61
2023/01/19 08:31:24;;;;;;;28.23;12.57;;;;;;;-2.60;78.47;100286.94;4981444;28;20155;-60
2023/01/19 08:33:49;;;;;;;27.80;13.10;;;;;;;-2.60;78.19;100292.06;4989821;28;20496;-57
2023/01/19 08:36:15;;;;;;;21.77;11.75;;;;;;;-2.59;78.14;100298.09;4988512;28;20067;-57
2023/01/19 08:38:43;;;;;;;25.77;12.38;;;;;;;-2.56;78.27;100298.03;4987303;28;20105;-58
2023/01/19 08:41:10;;;;;;;22.60;12.30;;;;;;;-2.56;78.04;100288.59;4983852;28;20102;-60
2023/01/19 08:43:36;;;;;;;32.15;13.63;;;;;;;-2.52;78.16;100286.84;4980353;28;20056;-57
2023/01/19 08:46:03;;;;;;;25.85;13.13;;;;;;;-2.51;78.28;100286.84;4980060;28;20063;-57
2023/01/19 08:48:29;;;;;;;24.67;13.32;;;;;;;-2.47;77.86;100295.38;4987667;28;20510;-57
2023/01/19 08:50:55;;;;;;;29.40;13.85;;;;;;;-2.43;78.48;100304.78;4986877;28;20067;-56
2023/01/19 08:53:24;;;;;;;34.50;17.25;;;;;;;-2.39;77.96;100305.59;4988900;28;20060;-57
2023/01/19 08:55:56;;;;;;;28.00;14.73;;;;;;;-2.35;78.37;100313.28;4987626;28;20096;-56
2023/01/19 08:58:22;;;;;;;29.25;12.95;;;;;;;-2.30;78.17;100308.06;4975999;28;20051;-61
2023/01/19 09:00:47;;;;;;;24.65;12.25;;;;;;;-2.25;78.25;100311.44;4988510;28;20050;-60
2023/01/19 09:03:13;;;;;;;30.05;14.25;;;;;;;-2.22;78.64;100321.75;4985777;28;20363;-58
2023/01/19 09:05:39;;;;;;;26.67;13.35;;;;;;;-2.13;77.99;100312.16;4990482;28;20143;-60
2023/01/19 09:08:12;;;;;;;18.60;11.27;;;;;;;-2.08;77.76;100318.13;4988433;28;20069;-58
2023/01/19 09:10:43;;;;;;;44.67;22.05;;;;;;;-2.04;78.20;100314.66;4989629;28;20055;-61
2023/01/19 09:13:10;;;;;;;28.30;13.38;;;;;;;-2.04;78.02;100304.34;4986045;28;20060;-59
2023/01/19 09:15:39;;;;;;;27.88;13.38;;;;;;;-2.03;78.17;100319.78;4977911;28;20077;-59
2023/01/19 09:18:12;;;;;;;22.75;11.65;;;;;;;-1.98;78.23;100317.13;4982496;28;20111;-61
2023/01/19 09:20:39;;;;;;;25.40;11.32;;;;;;;-1.94;77.70;100323.09;4981899;28;20707;-57
2023/01/19 09:23:05;;;;;;;24.58;11.85;;;;;;;-1.89;77.87;100327.31;4979320;28;20101;-58
2023/01/19 09:25:31;;;;;;;22.40;12.35;;;;;;;-1.84;77.77;100327.28;4979061;28;21029;-57
2023/01/19 09:27:58;;;;;;;25.63;11.68;;;;;;;-1.82;77.70;100317.81;4985763;28;20086;-58
2023/01/19 09:30:24;;;;;;;28.05;12.05;;;;;;;-1.80;77.76;100320.34;4985114;28;20068;-60
2023/01/19 09:32:49;;;;;;;24.55;12.70;;;;;;;-1.78;77.65;100328.94;4983077;28;20058;-58
2023/01/19 09:35:15;;;;;;;26.88;12.52;;;;;;;-1.74;77.88;100333.19;5023063;22;20119;-52
2023/01/19 09:37:45;;;;;;;26.55;13.48;;;;;;;-1.69;77.53;100323.63;5001965;28;20078;-50
2023/01/19 09:40:11;;;;;;;25.58;13.70;;;;;;;-1.68;77.83;100320.19;4998709;28;20045;-51
2023/01/19 09:42:47;;;;;;;33.80;16.83;;;;;;;-1.65;77.08;100325.31;5002503;28;20099;-55
2023/01/19 09:45:24;;;;;;;28.52;13.45;;;;;;;-1.65;77.03;100324.44;5003395;28;20077;-52
2023/01/19 09:47:52;;;;;;;33.83;13.63;;;;;;;-1.62;77.57;100321.81;5002064;28;20049;-53
2023/01/19 09:50:35;;;;;;;24.08;12.75;;;;;;;-1.64;77.25;100332.16;4999687;28;20140;-53
2023/01/19 09:53:12;;;;;;;24.95;13.20;;;;;;;-1.59;77.51;100325.19;5010617;28;20513;-52
2023/01/19 09:55:40;;;;;;;26.98;12.30;;;;;;;-1.58;77.16;100320.91;5009260;28;20124;-51
2023/01/19 09:58:24;;;;;;;18.35;10.88;;;;;;;-1.60;77.43;100318.38;5001229;28;20456;-52
2023/01/19 10:00:57;;;;;;;22.88;11.45;;;;;;;-1.57;77.49;100313.13;5000086;28;20051;-54
2023/01/19 10:03:23;;;;;;;25.15;12.02;;;;;;;-1.56;77.33;100320.00;5006522;28;20039;-53
2023/01/19 10:05:59;;;;;;;23.23;10.38;;;;;;;-1.54;77.01;100315.66;5003900;28;20047;-50
2023/01/19 10:08:32;;;;;;;22.40;11.38;;;;;;;-1.55;77.50;100301.06;4998743;28;20072;-52
2023/01/19 10:10:57;;;;;;;23.17;11.13;;;;;;;-1.50;77.47;100300.16;5007822;28;20565;-53
2023/01/19 10:13:29;;;;;;;23.65;11.98;;;;;;;-1.47;77.10;100300.13;5006460;28;20137;-50
2023/01/19 10:16:03;;;;;;;21.67;11.68;;;;;;;-1.47;77.14;100307.84;5014572;28;20521;-50
2023/01/19 10:18:50;;;;;;;18.02;9.98;;;;;;;-1.48;77.06;100298.41;5009962;28;20045;-55
2023/01/19 10:21:43;;;;;;;22.13;11.43;;;;;;;-1.44;76.88;100292.34;5012021;28;20124;-54
2023/01/19 10:24:35;;;;;;;18.52;10.50;;;;;;;-1.39;77.21;100295.66;5004884;28;20590;-53
2023/01/19 10:27:01;;;;;;;19.73;11.00;;;;;;;-1.36;76.93;100305.13;5005412;28;20084;-51
2023/01/19 10:29:37;;;;;;;21.52;11.35;;;;;;;-1.39;76.78;100299.13;5004564;28;20047;-51
2023/01/19 10:32:16;;;;;;;24.30;11.27;;;;;;;-1.38;76.99;100295.66;5007070;28;20055;-52
2023/01/19 10:34:42;;;;;;;22.27;10.98;;;;;;;-1.34;77.15;100299.03;5015078;28;20146;-52
2023/01/19 10:37:16;;;;;;;20.60;11.85;;;;;;;-1.31;76.82;100296.41;5015581;28;20070;-52
2023/01/19 10:39:52;;;;;;;22.60;11.55;;;;;;;-1.26;77.31;100297.19;5023892;28;20117;-52
2023/01/19 10:42:17;;;;;;;22.58;10.00;;;;;;;-1.22;76.74;100295.41;5005240;28;20051;-54
2023/01/19 10:44:44;;;;;;;22.63;11.88;;;;;;;-1.21;77.42;100291.94;5007395;28;20409;-52
2023/01/19 10:47:18;;;;;;;21.13;11.30;;;;;;;-1.19;76.91;100287.59;5009246;28;20096;-52
2023/01/19 10:49:46;;;;;;;26.98;10.82;;;;;;;-1.16;76.49;100290.13;5016244;28;20069;-51
2023/01/19 10:52:32;;;;;;;24.70;11.32;;;;;;;-1.15;76.66;100288.44;5021920;28;20037;-51
2023/01/19 10:55:00;;;;;;;20.98;10.05;;;;;;;-1.15;76.75;100289.25;5010777;28;20510;-53
2023/01/19 10:57:39;;;;;;;24.15;10.73;;;;;;;-1.15;76.82;100288.44;5007474;28;20048;-53
2023/01/19 11:00:26;;;;;;;21.48;11.63;;;;;;;-1.12;77.14;100293.50;5001997;28;20047;-53
2023/01/19 11:02:52;;;;;;;21.63;11.98;;;;;;;-1.08;76.50;100295.19;5003352;28;20060;-54
2023/01/19 11:05:35;;;;;;;24.60;11.93;;;;;;;-1.06;76.38;100284.84;5004357;28;20104;-52
2023/01/19 11:08:21;;;;;;;21.20;10.23;;;;;;;-1.06;76.39;100298.59;4998929;28;20086;-52
2023/01/19 11:10:53;;;;;;;21.48;11.02;;;;;;;-1.06;76.55;100283.09;5003462;28;20546;-50
2023/01/19 11:13:18;;;;;;;18.52;9.90;;;;;;;-1.06;76.38;100283.09;5009488;28;20475;-51
2023/01/19 11:15:56;;;;;;;22.88;10.60;;;;;;;-1.04;76.97;100281.34;5006633;28;20061;-53
2023/01/19 11:18:30;;;;;;;19.48;10.85;;;;;;;-1.06;76.47;100280.50;4999682;28;20047;-52
2023/01/19 11:21:01;;;;;;;18.08;11.50;;;;;;;-1.02;76.39;100287.34;5011943;28;20076;-52
2023/01/19 11:23:50;;;;;;;20.73;10.05;;;;;;;-1.01;76.29;100285.59;5012203;28;20535;-55
2023/01/19 11:26:33;;;;;;;22.10;11.77;;;;;;;-0.98;76.81;100290.72;5010651;28;20046;-55